ADDS METAR Data INFO
IDs: Format: Raw Decoded Include TAF

Data at: 1746 UTC 21 Oct 2017

KDPL 211725Z AUTO 10003KT 10SM CLR 25/12 A3031 RMK AO2
KDPL 211705Z AUTO 17004KT 10SM CLR 25/12 A3032 RMK AO2
KDPL 211645Z AUTO 15005KT 10SM CLR 25/12 A3033 RMK AO2
KDPL 211625Z AUTO 16006KT 10SM CLR 24/12 A3034 RMK AO2
KDPL 211605Z AUTO 19003KT 10SM CLR 24/12 A3034 RMK AO2
KDPL 211545Z AUTO 16005KT 10SM CLR 24/12 A3034 RMK AO2
KDPL 211525Z AUTO 14003KT 10SM CLR 23/13 A3034 RMK AO2
KDPL 211505Z AUTO 00000KT 10SM CLR 22/14 A3034 RMK AO2
KDPL 211445Z AUTO 00000KT 10SM CLR 22/14 A3034 RMK AO2
KDPL 211425Z AUTO 00000KT 10SM CLR 21/14 A3034 RMK AO2
KDPL 211405Z AUTO 00000KT 10SM CLR 20/14 A3034 RMK AO2
KDPL 211345Z AUTO 00000KT 10SM CLR 19/15 A3034 RMK AO2
KDPL 211325Z AUTO 00000KT 10SM CLR 16/14 A3034 RMK AO2
KDPL 211305Z AUTO 00000KT 10SM CLR 14/12 A3033 RMK AO2
KDPL 211245Z AUTO 00000KT 7SM CLR 12/11 A3032 RMK AO2
KDPL 211225Z AUTO 00000KT 7SM CLR 10/09 A3032 RMK AO2
KDPL 211205Z AUTO 00000KT 7SM CLR 08/07 A3031 RMK AO2
KDPL 211145Z AUTO 00000KT 5SM BR CLR 07/07 A3030 RMK AO2
KDPL 211125Z AUTO 00000KT 7SM CLR 07/06 A3030 RMK AO2
KDPL 211105Z AUTO 00000KT 7SM CLR 07/07 A3029 RMK AO2
KDPL 211045Z AUTO 00000KT 5SM BR CLR 07/07 A3029 RMK AO2
KDPL 211025Z AUTO 00000KT 4SM BR CLR 07/07 A3028 RMK AO2
KDPL 211005Z AUTO 00000KT 3SM BR CLR 07/07 A3028 RMK AO2
KDPL 210945Z AUTO 00000KT 5SM BR CLR 07/07 A3027 RMK AO2
KDPL 210925Z AUTO 00000KT 5SM BR CLR 07/07 A3026 RMK AO2
KDPL 210905Z AUTO 00000KT 5SM BR CLR 08/07 A3026 RMK AO2
KDPL 210845Z AUTO 00000KT 7SM CLR 08/07 A3025 RMK AO2
KDPL 210825Z AUTO 00000KT 5SM BR CLR 08/08 A3025 RMK AO2
KDPL 210805Z AUTO 00000KT 7SM CLR 09/08 A3025 RMK AO2
KDPL 210745Z AUTO 00000KT 7SM BR CLR 08/07 A3025 RMK AO2
KDPL 210725Z AUTO 00000KT 4SM BR CLR 09/08 A3025 RMK AO2
KDPL 210705Z AUTO 00000KT 5SM BR CLR 09/08 A3025 RMK AO2
KDPL 210645Z AUTO 00000KT 5SM BR CLR 08/08 A3026 RMK AO2
KDPL 210625Z AUTO 00000KT 5SM BR CLR 09/08 A3026 RMK AO2
KDPL 210605Z AUTO 00000KT 10SM CLR 09/08 A3026 RMK AO2
KDPL 210545Z AUTO 00000KT 5SM BR CLR 09/09 A3026 RMK AO2
KDPL 210525Z AUTO 00000KT 10SM CLR 09/08 A3026 RMK AO2
KDPL 210505Z AUTO 00000KT 7SM CLR 09/09 A3026 RMK AO2
KDPL 210445Z AUTO 00000KT 10SM CLR 10/09 A3026 RMK AO2
KDPL 210425Z AUTO 00000KT 10SM CLR 10/08 A3026 RMK AO2
KDPL 210405Z AUTO 00000KT 10SM CLR 10/09 A3026 RMK AO2
KDPL 210345Z AUTO 00000KT 10SM CLR 10/09 A3025 RMK AO2
KDPL 210325Z AUTO 00000KT 10SM CLR 11/10 A3024 RMK AO2
KDPL 210305Z AUTO 00000KT 10SM CLR 11/10 A3024 RMK AO2
KDPL 210245Z AUTO 00000KT 10SM CLR 11/10 A3023 RMK AO2
KDPL 210225Z AUTO 00000KT 10SM CLR 11/10 A3024 RMK AO2
KDPL 210205Z AUTO 00000KT 10SM CLR 12/10 A3024 RMK AO2
KDPL 210145Z AUTO 00000KT 10SM CLR 13/10 A3023 RMK AO2
KDPL 210125Z AUTO 00000KT 10SM CLR 13/10 A3022 RMK AO2
KDPL 210105Z AUTO 00000KT 10SM CLR 13/11 A3022 RMK AO2
KDPL 210045Z AUTO 00000KT 10SM CLR 13/10 A3022 RMK AO2
KDPL 210025Z AUTO 00000KT 10SM CLR 14/11 A3021 RMK AO2
KDPL 210005Z AUTO 00000KT 10SM CLR 14/11 A3021 RMK AO2
KDPL 202345Z AUTO 00000KT 10SM CLR 15/11 A3021 RMK AO2
KDPL 202325Z AUTO 00000KT 10SM CLR 16/11 A3020 RMK AO2
KDPL 202305Z AUTO 00000KT 7SM CLR 17/11 A3020 RMK AO2
KDPL 202245Z AUTO 00000KT 10SM CLR 18/11 A3019 RMK AO2
KDPL 202225Z AUTO 00000KT 10SM CLR 20/12 A3018 RMK AO2
KDPL 202205Z AUTO 31003KT 10SM CLR 23/11 A3018 RMK AO2
KDPL 202145Z AUTO 32004KT 10SM CLR 25/08 A3017 RMK AO2
KDPL 202125Z AUTO 35004KT 7SM CLR 26/07 A3017 RMK AO2
KDPL 202105Z AUTO 32004KT 7SM CLR 26/06 A3018 RMK AO2
KDPL 202045Z AUTO 33006KT 10SM CLR 27/06 A3018 RMK AO2
KDPL 202025Z AUTO 29004KT 10SM CLR 27/05 A3018 RMK AO2
KDPL 202005Z AUTO 27003KT 10SM CLR 27/05 A3018 RMK AO2
KDPL 201945Z AUTO 29006KT 10SM CLR 27/07 A3018 RMK AO2
KDPL 201925Z AUTO 02005KT 10SM CLR 27/06 A3018 RMK AO2
KDPL 201905Z AUTO 00000KT 10SM CLR 26/07 A3018 RMK AO2
KDPL 201845Z AUTO 00000KT 10SM CLR 26/08 A3019 RMK AO2
KDPL 201825Z AUTO 30004KT 10SM CLR 26/08 A3019 RMK AO2
KDPL 201805Z AUTO 32005KT 10SM CLR 26/08 A3020 RMK AO2
KDPL 201745Z AUTO 26003KT 10SM CLR 26/08 A3021 RMK AO2
KDPL 201725Z AUTO 28005KT 10SM CLR 26/08 A3022 RMK AO2
KDPL 201705Z AUTO 23003KT 10SM CLR 25/09 A3023 RMK AO2
KDPL 201645Z AUTO 29005KT 10SM CLR 25/09 A3024 RMK AO2
KDPL 201625Z AUTO 25003KT 10SM CLR 24/09 A3024 RMK AO2
KDPL 201605Z AUTO 33004KT 10SM CLR 23/10 A3025 RMK AO2
KDPL 201545Z AUTO 30005KT 10SM CLR 23/10 A3026 RMK AO2
KDPL 201525Z AUTO 35003KT 10SM CLR 22/10 A3026 RMK AO2
KDPL 201505Z AUTO 34006KT 10SM CLR 22/10 A3026 RMK AO2
KDPL 201445Z AUTO 31004KT 10SM CLR 21/10 A3027 RMK AO2
KDPL 201425Z AUTO 29004KT 10SM CLR 20/10 A3027 RMK AO2
KDPL 201405Z AUTO 27003KT 10SM CLR 20/11 A3027 RMK AO2
KDPL 201345Z AUTO 28003KT 10SM CLR 18/11 A3027 RMK AO2
KDPL 201325Z AUTO 28003KT 10SM CLR 16/11 A3027 RMK AO2
KDPL 201305Z AUTO 27003KT 10SM CLR 15/12 A3027 RMK AO2
KDPL 201245Z AUTO 00000KT 7SM CLR 12/11 A3026 RMK AO2
KDPL 201225Z AUTO 00000KT 7SM CLR 09/09 A3026 RMK AO2
KDPL 201205Z AUTO 00000KT 7SM CLR 07/07 A3025 RMK AO2
KDPL 201145Z AUTO 00000KT 7SM BR CLR 07/06 A3025 RMK AO2
KDPL 201125Z AUTO 00000KT 7SM CLR 07/07 A3024 RMK AO2
KDPL 201105Z AUTO 00000KT 5SM BR CLR 07/06 A3024 RMK AO2
KDPL 201045Z AUTO 00000KT 7SM CLR 07/06 A3023 RMK AO2
KDPL 201025Z AUTO 00000KT 4SM BR CLR 07/07 A3023 RMK AO2
KDPL 201005Z AUTO 00000KT 4SM BR CLR 07/07 A3023 RMK AO2
KDPL 200945Z AUTO 00000KT 5SM BR CLR 07/07 A3022 RMK AO2
KDPL 200925Z AUTO 00000KT 3 1/2SM BR CLR 08/07 A3022 RMK AO2
KDPL 200905Z AUTO 00000KT 7SM CLR 07/07 A3022 RMK AO2
KDPL 200845Z AUTO 00000KT 5SM BR CLR 07/07 A3022 RMK AO2
KDPL 200825Z AUTO 00000KT 7SM CLR 07/07 A3022 RMK AO2
KDPL 200805Z AUTO 00000KT 10SM CLR 07/07 A3022 RMK AO2
KDPL 200745Z AUTO 00000KT 7SM CLR 09/09 A3022 RMK AO2
KDPL 200725Z AUTO 24003KT 7SM BR CLR 09/09 A3022 RMK AO2
KDPL 200705Z AUTO 00000KT 5SM BR CLR 09/08 A3021 RMK AO2
KDPL 200645Z AUTO 00000KT 5SM BR CLR 09/08 A3021 RMK AO2
KDPL 200625Z AUTO 00000KT 10SM CLR 09/09 A3021 RMK AO2
KDPL 200605Z AUTO 00000KT 4SM BR CLR 09/09 A3022 RMK AO2